createdAt,value
2017-11-11T00:00:16.295Z,71.21
2017-11-11T00:02:43.770Z,71.52
2017-11-11T00:05:11.238Z,71.69
2017-11-11T00:07:38.697Z,71.93
2017-11-11T00:10:06.186Z,71.74
2017-11-11T00:12:33.633Z,71.98
2017-11-11T00:15:01.344Z,72.26
2017-11-11T00:17:28.800Z,72.17
2017-11-11T00:19:56.248Z,72.08
2017-11-11T00:22:23.685Z,72.17
2017-11-11T00:24:51.169Z,72.49
2017-11-11T00:27:18.617Z,72.22
2017-11-11T00:29:46.078Z,72.45
2017-11-11T00:32:13.574Z,72.20
2017-11-11T00:34:41.037Z,72.16
2017-11-11T00:37:09.374Z,72.21
2017-11-11T00:39:36.853Z,72.12
2017-11-11T00:42:04.308Z,72.44
2017-11-11T00:44:31.763Z,72.58
2017-11-11T00:46:59.222Z,72.40
2017-11-11T00:49:26.705Z,72.35
2017-11-11T00:51:54.174Z,72.51
2017-11-11T00:54:21.636Z,72.57
2017-11-11T00:56:49.094Z,72.68
2017-11-11T00:59:16.554Z,72.62
2017-11-11T01:01:44.029Z,72.33
2017-11-11T01:04:11.614Z,72.02
2017-11-11T01:06:42.750Z,72.33
2017-11-11T01:09:10.228Z,71.95
2017-11-11T01:11:37.673Z,72.03
2017-11-11T01:14:05.114Z,71.74
2017-11-11T01:16:32.576Z,71.67
2017-11-11T01:19:00.110Z,71.80
2017-11-11T01:21:27.581Z,71.58
2017-11-11T01:23:55.054Z,71.50
2017-11-11T01:26:22.604Z,71.50
2017-11-11T01:28:50.061Z,71.57
2017-11-11T01:31:17.540Z,71.29
2017-11-11T01:33:44.995Z,71.07
2017-11-11T01:36:12.459Z,71.05
2017-11-11T01:38:39.929Z,71.02
2017-11-11T01:41:07.398Z,70.87
2017-11-11T01:43:34.848Z,71.21
2017-11-11T01:46:02.325Z,70.89
2017-11-11T01:48:29.775Z,70.39
2017-11-11T01:50:57.245Z,70.51
2017-11-11T01:53:24.723Z,70.42
2017-11-11T01:55:52.177Z,70.46
2017-11-11T01:58:19.637Z,70.55
2017-11-11T02:00:47.126Z,70.38
2017-11-11T02:03:14.682Z,70.24
2017-11-11T02:05:42.139Z,70.22
2017-11-11T02:08:09.611Z,70.42
2017-11-11T02:10:37.071Z,70.32
2017-11-11T02:13:09.635Z,70.40
2017-11-11T02:15:37.082Z,70.50
2017-11-11T02:18:04.546Z,70.62
2017-11-11T02:20:32.032Z,70.83
2017-11-11T02:22:59.480Z,70.91
2017-11-11T02:25:26.927Z,70.98
2017-11-11T02:27:54.398Z,71.04
2017-11-11T02:30:21.860Z,71.35
2017-11-11T02:32:49.314Z,71.56
2017-11-11T02:35:16.790Z,72.13
2017-11-11T02:37:44.249Z,72.31
2017-11-11T02:40:11.713Z,72.40
2017-11-11T02:42:40.235Z,73.46
2017-11-11T02:45:07.700Z,74.28
2017-11-11T02:47:35.164Z,74.44
2017-11-11T02:50:02.662Z,74.35
2017-11-11T02:52:30.130Z,74.73
2017-11-11T02:54:57.584Z,75.84
2017-11-11T02:57:25.062Z,76.30
2017-11-11T02:59:52.532Z,76.92
2017-11-11T03:02:19.991Z,76.63
2017-11-11T03:04:47.456Z,76.21
2017-11-11T03:07:15.849Z,76.38
2017-11-11T03:09:43.315Z,76.68
2017-11-11T03:12:10.810Z,76.86
2017-11-11T03:14:38.269Z,76.88
2017-11-11T03:17:05.723Z,76.18
2017-11-11T03:19:33.227Z,76.35
2017-11-11T03:22:00.682Z,76.46
2017-11-11T03:24:28.244Z,76.62
2017-11-11T03:26:55.995Z,76.60
2017-11-11T03:29:23.443Z,76.22
2017-11-11T03:31:50.903Z,76.26
2017-11-11T03:34:18.509Z,76.06
2017-11-11T03:36:45.955Z,76.14
2017-11-11T03:39:13.406Z,75.92
2017-11-11T03:41:40.883Z,76.50
2017-11-11T03:44:08.344Z,75.49
2017-11-11T03:46:35.823Z,74.92
2017-11-11T03:49:03.675Z,75.07
2017-11-11T03:51:31.173Z,75.23
2017-11-11T03:53:58.660Z,75.68
2017-11-11T03:56:26.137Z,75.59
2017-11-11T03:58:53.595Z,75.68
2017-11-11T04:01:21.039Z,76.00
2017-11-11T04:03:48.543Z,75.68
2017-11-11T04:06:16.009Z,75.96
2017-11-11T04:08:43.468Z,76.40
2017-11-11T04:11:11.017Z,75.93
2017-11-11T04:13:38.475Z,76.16
2017-11-11T04:16:05.924Z,76.47
2017-11-11T04:18:33.404Z,76.96
2017-11-11T04:21:01.023Z,77.56
2017-11-11T04:23:28.471Z,77.78
2017-11-11T04:25:55.930Z,77.72
2017-11-11T04:28:23.382Z,78.11
2017-11-11T04:30:50.830Z,77.96
2017-11-11T04:33:18.319Z,77.87
2017-11-11T04:35:45.769Z,77.99
2017-11-11T04:38:13.217Z,78.58
2017-11-11T04:40:40.679Z,78.81
2017-11-11T04:43:08.136Z,78.70
2017-11-11T04:45:35.588Z,78.78
2017-11-11T04:48:03.053Z,78.98
2017-11-11T04:50:30.535Z,78.58
2017-11-11T04:52:58.009Z,78.70
2017-11-11T04:55:25.476Z,78.81
2017-11-11T04:57:52.942Z,78.18
2017-11-11T05:00:20.392Z,75.08
2017-11-11T05:02:47.868Z,75.22
2017-11-11T05:05:15.321Z,75.28
2017-11-11T05:07:42.787Z,75.82
2017-11-11T05:10:10.249Z,75.60
2017-11-11T05:12:38.944Z,75.71
2017-11-11T05:15:06.380Z,73.90
2017-11-11T05:17:34.329Z,72.99
2017-11-11T05:20:01.771Z,72.18
2017-11-11T05:22:29.318Z,72.15
2017-11-11T05:24:56.873Z,71.80
2017-11-11T05:27:24.313Z,69.43
2017-11-11T05:29:51.755Z,68.45
2017-11-11T05:32:19.243Z,68.33
2017-11-11T05:34:46.702Z,67.51
2017-11-11T05:37:14.165Z,67.74
2017-11-11T05:39:41.634Z,67.66
2017-11-11T05:42:09.076Z,66.88
2017-11-11T05:44:36.528Z,66.36
2017-11-11T05:47:04.014Z,65.18
2017-11-11T05:49:31.456Z,65.17
2017-11-11T05:51:58.907Z,65.26
2017-11-11T05:54:26.388Z,64.92
2017-11-11T05:56:55.364Z,65.34
2017-11-11T05:59:22.813Z,65.19
2017-11-11T06:01:50.281Z,64.95
2017-11-11T06:04:17.730Z,66.05
2017-11-11T06:06:45.173Z,66.45
2017-11-11T06:09:12.647Z,67.02
2017-11-11T06:11:40.119Z,67.43
2017-11-11T06:14:07.566Z,67.37
2017-11-11T06:16:35.029Z,67.76
2017-11-11T06:19:02.496Z,67.58
2017-11-11T06:21:31.384Z,68.22
2017-11-11T06:23:58.849Z,67.93
2017-11-11T06:26:26.397Z,68.10
2017-11-11T06:28:56.632Z,68.52
2017-11-11T06:31:24.769Z,68.41
2017-11-11T06:33:52.218Z,67.84
2017-11-11T06:36:19.672Z,68.07
2017-11-11T06:38:47.137Z,68.26
2017-11-11T06:41:14.583Z,67.47
2017-11-11T06:43:42.040Z,67.33
2017-11-11T06:46:09.511Z,67.31
2017-11-11T06:48:38.825Z,67.86
2017-11-11T06:51:06.287Z,68.41
2017-11-11T06:53:33.774Z,68.80
2017-11-11T06:56:01.200Z,68.88
2017-11-11T06:58:28.710Z,68.40
2017-11-11T07:00:56.194Z,68.97
2017-11-11T07:03:23.645Z,69.61
2017-11-11T07:05:51.091Z,69.57
2017-11-11T07:08:18.552Z,70.00
2017-11-11T07:10:46.026Z,70.22
2017-11-11T07:13:13.478Z,69.85
2017-11-11T07:15:40.941Z,70.52
2017-11-11T07:18:08.396Z,70.19
2017-11-11T07:20:35.851Z,70.62
2017-11-11T07:23:03.323Z,70.79
2017-11-11T07:25:30.787Z,71.27
2017-11-11T07:27:58.252Z,70.94
2017-11-11T07:30:25.717Z,70.31
2017-11-11T07:32:53.183Z,69.24
2017-11-11T07:35:20.718Z,69.44
2017-11-11T07:37:48.231Z,69.33
2017-11-11T07:40:15.717Z,69.53
2017-11-11T07:42:43.189Z,68.66
2017-11-11T07:45:10.654Z,67.69
2017-11-11T07:47:38.203Z,67.44
2017-11-11T07:50:05.716Z,67.41
2017-11-11T07:52:33.215Z,67.24
2017-11-11T07:55:00.692Z,66.52
2017-11-11T07:57:30.256Z,66.35
2017-11-11T07:59:58.520Z,65.90
2017-11-11T08:02:26.733Z,65.35
2017-11-11T08:04:54.393Z,65.16
2017-11-11T08:07:21.888Z,64.83
2017-11-11T08:09:49.364Z,65.32
2017-11-11T08:12:16.868Z,65.21
2017-11-11T08:14:44.394Z,65.14
2017-11-11T08:17:11.862Z,64.66
2017-11-11T08:19:39.375Z,64.02
2017-11-11T08:22:06.858Z,64.06
2017-11-11T08:24:34.452Z,63.51
2017-11-11T08:27:01.943Z,62.66
2017-11-11T08:29:29.463Z,61.99
2017-11-11T08:31:56.978Z,61.36
2017-11-11T08:34:24.573Z,61.46
2017-11-11T08:36:52.103Z,61.33
2017-11-11T08:39:19.603Z,59.85
2017-11-11T08:41:47.094Z,60.20
2017-11-11T08:44:14.629Z,60.34
2017-11-11T08:46:42.104Z,60.29
2017-11-11T08:49:09.625Z,59.98
2017-11-11T08:51:37.096Z,59.13
2017-11-11T08:54:04.592Z,58.97
2017-11-11T08:56:32.052Z,58.87
2017-11-11T08:58:59.539Z,58.41
2017-11-11T09:01:27.029Z,58.46
2017-11-11T09:03:54.517Z,57.36
2017-11-11T09:06:22.075Z,57.85
2017-11-11T09:08:49.530Z,57.01
2017-11-11T09:11:17.013Z,57.58
2017-11-11T09:13:44.584Z,57.56
2017-11-11T09:16:12.077Z,57.20
2017-11-11T09:18:40.968Z,57.04
2017-11-11T09:21:08.448Z,56.68
2017-11-11T09:23:35.952Z,56.26
2017-11-11T09:26:03.469Z,55.80
2017-11-11T09:28:30.962Z,55.59
2017-11-11T09:30:59.353Z,55.52
2017-11-11T09:33:27.795Z,55.70
2017-11-11T09:35:57.364Z,55.86
2017-11-11T09:38:24.855Z,55.49
2017-11-11T09:40:52.578Z,55.68
2017-11-11T09:43:20.079Z,56.16
2017-11-11T09:45:47.540Z,56.35
2017-11-11T09:48:15.044Z,56.95
2017-11-11T09:50:42.529Z,57.15
2017-11-11T09:53:10.032Z,57.92
2017-11-11T09:55:37.487Z,58.64
2017-11-11T09:58:04.947Z,59.00
2017-11-11T10:00:32.421Z,59.41
2017-11-11T10:02:59.910Z,59.27
2017-11-11T10:05:27.389Z,59.01
2017-11-11T10:07:54.900Z,58.14
2017-11-11T10:10:22.386Z,57.62
2017-11-11T10:12:49.891Z,57.59
2017-11-11T10:15:17.377Z,57.25
2017-11-11T10:17:44.850Z,57.05
2017-11-11T10:20:12.404Z,57.17
2017-11-11T10:22:40.026Z,56.97
2017-11-11T10:25:08.391Z,57.40
2017-11-11T10:27:35.900Z,57.73
2017-11-11T10:30:03.366Z,57.77
2017-11-11T10:37:03.126Z,58.59
2017-11-11T10:39:30.576Z,58.23
2017-11-11T10:41:58.123Z,57.87
2017-11-11T10:44:25.657Z,57.53
2017-11-11T10:46:53.127Z,57.32
2017-11-11T10:49:20.606Z,57.30
2017-11-11T10:51:48.159Z,57.05
2017-11-11T10:54:15.644Z,57.08
2017-11-11T10:56:43.116Z,56.59
2017-11-11T10:59:10.859Z,56.18
2017-11-11T11:01:38.389Z,54.85
2017-11-11T11:04:05.856Z,53.80
2017-11-11T11:06:33.336Z,53.75
2017-11-11T11:09:00.803Z,52.07
2017-11-11T11:11:28.279Z,51.74
2017-11-11T11:13:55.748Z,51.32
2017-11-11T11:16:23.208Z,51.08
2017-11-11T11:18:50.671Z,51.11
2017-11-11T11:21:18.163Z,50.73
2017-11-11T11:23:45.677Z,51.12
2017-11-11T11:26:13.150Z,50.83
2017-11-11T11:28:40.642Z,50.19
2017-11-11T11:31:08.178Z,50.02
2017-11-11T11:33:35.659Z,49.61
2017-11-11T11:36:03.138Z,49.52
2017-11-11T11:38:30.631Z,49.25
2017-11-11T11:40:58.176Z,49.54
2017-11-11T11:43:25.691Z,49.83
2017-11-11T11:45:53.147Z,49.30
2017-11-11T11:48:20.596Z,49.01
2017-11-11T11:50:48.091Z,49.06
2017-11-11T11:53:15.603Z,49.25
2017-11-11T11:55:43.073Z,49.41
2017-11-11T11:58:10.573Z,49.63
2017-11-11T12:00:38.055Z,49.17
2017-11-11T12:03:05.559Z,48.79
2017-11-11T12:05:33.053Z,48.18
2017-11-11T12:08:00.533Z,48.20
2017-11-11T12:10:28.046Z,48.64
2017-11-11T12:12:55.583Z,48.45
2017-11-11T12:15:23.087Z,48.08
2017-11-11T12:17:50.586Z,47.78
2017-11-11T12:20:18.098Z,47.52
2017-11-11T12:22:45.586Z,47.22
2017-11-11T12:25:13.100Z,46.85
2017-11-11T12:27:40.639Z,46.11
2017-11-11T12:30:08.690Z,45.99
2017-11-11T12:32:36.192Z,45.97
2017-11-11T12:35:03.719Z,46.11
2017-11-11T12:37:31.203Z,46.35
2017-11-11T12:39:58.743Z,46.68
2017-11-11T12:42:26.239Z,46.95
2017-11-11T12:44:53.729Z,47.08
2017-11-11T12:47:21.204Z,47.17
2017-11-11T12:49:48.716Z,47.62
2017-11-11T12:52:16.229Z,47.69
2017-11-11T12:54:43.731Z,47.66
2017-11-11T12:57:11.250Z,47.75
2017-11-11T12:59:38.723Z,48.12
2017-11-11T13:02:06.237Z,48.06
2017-11-11T13:04:33.765Z,48.33
2017-11-11T13:07:01.276Z,48.42
2017-11-11T13:09:28.766Z,48.59
2017-11-11T13:11:56.255Z,48.72
2017-11-11T13:14:23.757Z,48.69
2017-11-11T13:16:51.247Z,49.18
2017-11-11T13:19:18.803Z,49.28
2017-11-11T13:21:46.331Z,49.68
2017-11-11T13:24:13.843Z,50.05
2017-11-11T13:26:41.345Z,50.05
2017-11-11T13:29:08.802Z,50.48
2017-11-11T13:31:36.311Z,50.44
2017-11-11T13:34:03.836Z,50.70
2017-11-11T13:36:31.321Z,50.85
2017-11-11T13:38:58.780Z,50.84
2017-11-11T13:41:26.275Z,51.02
2017-11-11T13:43:53.757Z,50.96
2017-11-11T13:46:21.234Z,51.14
2017-11-11T13:48:48.761Z,51.10
2017-11-11T13:51:16.257Z,51.09
2017-11-11T13:53:43.752Z,50.76
2017-11-11T13:56:11.245Z,50.71
2017-11-11T13:58:38.788Z,50.79
2017-11-11T14:01:06.264Z,50.67
2017-11-11T14:03:33.752Z,50.67
2017-11-11T14:06:01.210Z,50.81
2017-11-11T14:08:28.702Z,50.78
2017-11-11T14:10:56.210Z,50.41
2017-11-11T14:13:23.674Z,50.31
2017-11-11T14:15:51.165Z,50.55
2017-11-11T14:18:18.647Z,50.80
2017-11-11T14:20:46.129Z,50.93
2017-11-11T14:23:13.625Z,50.92
2017-11-11T14:25:41.130Z,50.78
2017-11-11T14:28:08.678Z,51.02
2017-11-11T14:30:36.199Z,51.15
2017-11-11T14:33:03.675Z,51.10
2017-11-11T14:35:31.250Z,50.82
2017-11-11T14:37:58.723Z,50.88
2017-11-11T14:40:26.217Z,50.72
2017-11-11T14:42:53.692Z,50.78
2017-11-11T14:45:21.160Z,50.09
2017-11-11T14:47:48.704Z,49.80
2017-11-11T14:50:16.182Z,49.83
2017-11-11T14:52:43.639Z,49.77
2017-11-11T14:55:11.126Z,49.88
2017-11-11T14:57:38.595Z,49.91
2017-11-11T15:00:06.190Z,49.81
2017-11-11T15:02:33.680Z,49.75
2017-11-11T15:05:01.153Z,49.92
2017-11-11T15:07:28.610Z,48.95
2017-11-11T15:09:56.120Z,48.63
2017-11-11T15:12:23.631Z,48.97
2017-11-11T15:14:51.109Z,49.19
2017-11-11T15:17:18.600Z,49.03
2017-11-11T15:19:46.109Z,49.64
2017-11-11T15:22:13.594Z,48.46
2017-11-11T15:24:41.109Z,49.09
2017-11-11T15:27:08.602Z,49.21
2017-11-11T15:29:36.092Z,48.47
2017-11-11T15:32:03.626Z,48.32
2017-11-11T15:34:31.115Z,48.79
2017-11-11T15:36:58.574Z,48.85
2017-11-11T15:39:26.090Z,48.12
2017-11-11T15:41:53.592Z,47.99
2017-11-11T15:44:21.079Z,48.24
2017-11-11T15:46:48.569Z,48.04
2017-11-11T15:49:16.063Z,48.09
2017-11-11T15:51:43.574Z,48.04
2017-11-11T15:54:11.108Z,48.19
2017-11-11T15:56:38.634Z,48.60
2017-11-11T15:59:06.151Z,48.45
2017-11-11T16:01:33.638Z,48.43
2017-11-11T16:04:01.134Z,48.83
2017-11-11T16:06:28.697Z,48.85
2017-11-11T16:08:56.264Z,48.49
2017-11-11T16:11:23.752Z,48.94
2017-11-11T16:13:51.282Z,49.17
2017-11-11T16:16:18.846Z,49.30
2017-11-11T16:18:46.361Z,49.32
2017-11-11T16:21:13.873Z,49.69
2017-11-11T16:23:41.386Z,49.87
2017-11-11T16:26:08.877Z,50.57
2017-11-11T16:28:36.352Z,50.79
2017-11-11T16:31:03.881Z,51.60
2017-11-11T16:33:31.359Z,52.86
2017-11-11T16:35:58.875Z,52.49
2017-11-11T16:38:26.420Z,52.47
2017-11-11T16:40:53.925Z,53.67
2017-11-11T16:43:21.391Z,53.05
2017-11-11T16:45:48.876Z,54.09
2017-11-11T16:48:16.381Z,55.41
2017-11-11T16:50:43.846Z,55.08
2017-11-11T16:53:11.346Z,56.25
2017-11-11T16:55:38.854Z,56.78
2017-11-11T16:58:06.322Z,57.63
2017-11-11T17:00:33.841Z,57.90
2017-11-11T17:03:01.356Z,57.48
2017-11-11T17:05:28.848Z,57.35
2017-11-11T17:07:56.369Z,57.85
2017-11-11T17:10:23.900Z,58.36
2017-11-11T17:12:51.379Z,59.01
2017-11-11T17:15:18.881Z,58.84
2017-11-11T17:17:46.359Z,59.79
2017-11-11T17:20:13.849Z,60.96
2017-11-11T17:22:41.357Z,61.82
2017-11-11T17:25:08.871Z,63.05
2017-11-11T17:27:36.400Z,64.81
2017-11-11T17:30:03.900Z,65.31
2017-11-11T17:32:31.383Z,66.13
2017-11-11T17:34:58.860Z,67.05
2017-11-11T17:37:26.391Z,67.88
2017-11-11T17:39:53.925Z,67.68
2017-11-11T17:42:21.421Z,68.59
2017-11-11T17:44:49.002Z,69.87
2017-11-11T17:47:16.485Z,69.70
2017-11-11T17:49:43.955Z,71.25
2017-11-11T17:52:11.480Z,71.85
2017-11-11T17:54:39.043Z,71.96
2017-11-11T17:57:06.550Z,72.80
2017-11-11T17:59:34.063Z,73.50
2017-11-11T18:02:01.599Z,73.80
2017-11-11T18:04:29.077Z,74.03
2017-11-11T18:06:56.601Z,74.91
2017-11-11T18:09:24.171Z,75.73
2017-11-11T18:11:51.680Z,76.30
2017-11-11T18:14:19.254Z,76.75
2017-11-11T18:16:46.752Z,77.69
2017-11-11T18:19:14.236Z,77.77
2017-11-11T18:21:41.729Z,78.22
2017-11-11T18:24:09.229Z,78.55
2017-11-11T18:26:36.710Z,78.96
2017-11-11T18:29:04.232Z,79.61
2017-11-11T18:31:31.729Z,80.39
2017-11-11T18:33:59.204Z,80.79
2017-11-11T18:36:26.790Z,81.43
2017-11-11T18:38:54.284Z,81.27
2017-11-11T18:41:21.795Z,82.02
2017-11-11T18:43:49.308Z,82.62
2017-11-11T18:46:16.792Z,82.51
2017-11-11T18:48:44.289Z,82.83
2017-11-11T18:51:11.824Z,83.26
2017-11-11T18:53:39.306Z,83.04
2017-11-11T18:56:06.783Z,83.49
2017-11-11T18:58:34.328Z,83.97
2017-11-11T19:01:01.874Z,83.72
2017-11-11T19:03:29.355Z,83.61
2017-11-11T19:05:56.913Z,84.26
2017-11-11T19:08:24.413Z,84.30
2017-11-11T19:10:52.020Z,84.39
2017-11-11T19:13:19.523Z,84.51
2017-11-11T19:15:47.027Z,85.16
2017-11-11T19:18:14.537Z,84.20
2017-11-11T19:20:42.061Z,84.44
2017-11-11T19:23:09.569Z,84.88
2017-11-11T19:25:37.052Z,85.39
2017-11-11T19:28:04.624Z,85.12
2017-11-11T19:30:32.161Z,84.92
2017-11-11T19:32:59.688Z,85.13
2017-11-11T19:35:27.220Z,85.49
2017-11-11T19:37:54.700Z,85.17
2017-11-11T19:40:22.189Z,85.19
2017-11-11T19:42:49.772Z,85.03
2017-11-11T19:45:17.280Z,85.78
2017-11-11T19:47:44.783Z,86.40
2017-11-11T19:50:12.308Z,86.30
2017-11-11T19:52:39.834Z,86.36
2017-11-11T19:55:07.326Z,86.32
2017-11-11T19:57:34.846Z,86.85
2017-11-11T20:00:02.532Z,86.37
2017-11-11T20:02:30.063Z,86.68
2017-11-11T20:04:57.614Z,86.96
2017-11-11T20:07:25.121Z,87.16
2017-11-11T20:09:52.611Z,87.19
2017-11-11T20:12:20.104Z,87.44
2017-11-11T20:14:47.604Z,87.70
2017-11-11T20:17:15.129Z,87.40
2017-11-11T20:19:42.626Z,87.44
2017-11-11T20:22:10.125Z,87.73
2017-11-11T20:24:37.660Z,87.90
2017-11-11T20:27:05.161Z,87.88
2017-11-11T20:29:32.692Z,87.86
2017-11-11T20:32:00.209Z,87.32
2017-11-11T20:34:27.700Z,87.10
2017-11-11T20:36:55.197Z,87.14
2017-11-11T20:39:22.700Z,86.94
2017-11-11T20:41:50.206Z,86.86
2017-11-11T20:44:17.748Z,86.79
2017-11-11T20:46:45.264Z,86.98
2017-11-11T20:49:12.778Z,87.03
2017-11-11T20:51:40.351Z,86.81
2017-11-11T20:54:07.840Z,86.62
2017-11-11T20:56:35.336Z,86.81
2017-11-11T20:59:02.835Z,86.61
2017-11-11T21:01:30.313Z,86.67
2017-11-11T21:03:57.811Z,86.75
2017-11-11T21:06:25.311Z,86.98
2017-11-11T21:08:52.819Z,86.34
2017-11-11T21:11:20.318Z,85.95
2017-11-11T21:13:47.836Z,86.35
2017-11-11T21:16:15.330Z,86.05
2017-11-11T21:18:42.846Z,85.63
2017-11-11T21:21:10.341Z,86.04
2017-11-11T21:23:37.842Z,85.94
2017-11-11T21:26:05.374Z,85.99
2017-11-11T21:28:32.871Z,85.98
2017-11-11T21:31:00.394Z,86.03
2017-11-11T21:33:27.915Z,86.36
2017-11-11T21:35:55.419Z,85.69
2017-11-11T21:38:22.917Z,85.73
2017-11-11T21:40:50.420Z,86.08
2017-11-11T21:43:17.900Z,86.25
2017-11-11T21:45:45.379Z,86.25
2017-11-11T21:48:12.883Z,86.49
2017-11-11T21:50:40.362Z,86.27
2017-11-11T21:53:07.843Z,85.95
2017-11-11T21:55:35.466Z,86.43
2017-11-11T21:58:02.926Z,87.01
2017-11-11T22:00:30.417Z,87.20
2017-11-11T22:02:57.913Z,87.53
2017-11-11T22:05:25.420Z,87.36
2017-11-11T22:07:52.887Z,87.45
2017-11-11T22:10:20.409Z,87.73
2017-11-11T22:12:47.884Z,87.83
2017-11-11T22:15:15.365Z,87.67
2017-11-11T22:17:42.869Z,87.41
2017-11-11T22:20:10.370Z,87.29
2017-11-11T22:22:37.944Z,87.15
2017-11-11T22:25:05.986Z,86.99
2017-11-11T22:27:33.462Z,86.65
2017-11-11T22:30:00.943Z,86.64
2017-11-11T22:32:28.422Z,86.26
2017-11-11T22:34:55.901Z,86.06
2017-11-11T22:37:23.357Z,86.23
2017-11-11T22:39:50.847Z,86.69
2017-11-11T22:42:18.307Z,86.44
2017-11-11T22:44:45.810Z,86.64
2017-11-11T22:47:13.294Z,86.56
2017-11-11T22:49:40.746Z,86.70
2017-11-11T22:52:08.200Z,86.68
2017-11-11T22:54:35.694Z,86.63
2017-11-11T22:57:03.156Z,86.03
2017-11-11T22:59:30.666Z,86.17
2017-11-11T23:01:58.158Z,86.23
2017-11-11T23:04:25.622Z,86.50
2017-11-11T23:06:53.134Z,86.61
2017-11-11T23:09:20.636Z,86.73
2017-11-11T23:11:48.151Z,86.92
2017-11-11T23:14:15.655Z,87.14
2017-11-11T23:16:43.140Z,87.18
2017-11-11T23:19:10.602Z,87.08
2017-11-11T23:21:38.078Z,87.14
2017-11-11T23:24:05.546Z,87.25
2017-11-11T23:26:33.106Z,87.27
2017-11-11T23:29:00.596Z,87.19
2017-11-11T23:31:28.087Z,87.46
2017-11-11T23:33:55.559Z,87.16
2017-11-11T23:36:23.042Z,87.71
2017-11-11T23:38:50.537Z,87.59
2017-11-11T23:41:18.026Z,87.01
2017-11-11T23:43:45.484Z,87.48
2017-11-11T23:46:13.020Z,87.79
2017-11-11T23:48:40.514Z,88.15
2017-11-11T23:51:07.990Z,88.16
2017-11-11T23:53:35.477Z,87.49
2017-11-11T23:56:02.944Z,87.56
2017-11-11T23:58:30.406Z,87.72
